sensor_id;sensor_type;location;lat;lon;timestamp;pressure;altitude;pressure_sealevel;temperature;humidity
15694;BME280;7947;48.834;9.132;2023-05-23T00:00:59;98008.75;;;18.97;84.17
15694;BME280;7947;48.834;9.132;2023-05-23T00:04:02;98010.13;;;19.03;84.68
15694;BME280;7947;48.834;9.132;2023-05-23T00:07:05;98000.88;;;19.04;85.14
15694;BME280;7947;48.834;9.132;2023-05-23T00:10:08;98003.66;;;18.96;85.56
15694;BME280;7947;48.834;9.132;2023-05-23T00:13:11;98004.13;;;18.98;85.94
15694;BME280;7947;48.834;9.132;2023-05-23T00:16:16;98007.63;;;18.98;86.33
15694;BME280;7947;48.834;9.132;2023-05-23T00:19:19;98007.44;;;19.03;85.95
15694;BME280;7947;48.834;9.132;2023-05-23T00:22:22;98005.03;;;19.02;85.90
15694;BME280;7947;48.834;9.132;2023-05-23T00:25:25;98009.44;;;18.94;86.08
15694;BME280;7947;48.834;9.132;2023-05-23T00:28:36;98007.22;;;18.87;86.60
15694;BME280;7947;48.834;9.132;2023-05-23T00:31:41;98008.03;;;18.88;86.88
15694;BME280;7947;48.834;9.132;2023-05-23T00:34:46;98009.16;;;18.87;86.62
15694;BME280;7947;48.834;9.132;2023-05-23T00:37:49;98014.91;;;18.85;87.03
15694;BME280;7947;48.834;9.132;2023-05-23T00:40:52;98016.84;;;18.85;87.13
15694;BME280;7947;48.834;9.132;2023-05-23T00:43:56;98015.38;;;18.87;87.19
15694;BME280;7947;48.834;9.132;2023-05-23T00:47:01;98018.91;;;18.88;86.86
15694;BME280;7947;48.834;9.132;2023-05-23T00:50:08;98011.22;;;18.90;87.08
15694;BME280;7947;48.834;9.132;2023-05-23T00:53:12;98018.25;;;18.91;87.15
15694;BME280;7947;48.834;9.132;2023-05-23T00:56:15;98017.56;;;18.94;87.14
15694;BME280;7947;48.834;9.132;2023-05-23T00:59:18;98031.50;;;18.92;87.31
15694;BME280;7947;48.834;9.132;2023-05-23T01:02:23;98027.97;;;18.92;87.37
15694;BME280;7947;48.834;9.132;2023-05-23T01:05:26;98033.41;;;18.92;87.66
15694;BME280;7947;48.834;9.132;2023-05-23T01:08:29;98035.81;;;18.93;87.79
15694;BME280;7947;48.834;9.132;2023-05-23T01:11:35;98025.72;;;18.94;87.86
15694;BME280;7947;48.834;9.132;2023-05-23T01:14:45;98027.97;;;18.92;87.37
15694;BME280;7947;48.834;9.132;2023-05-23T01:17:53;98031.38;;;18.89;87.70
15694;BME280;7947;48.834;9.132;2023-05-23T01:21:02;98030.91;;;18.87;87.74
15694;BME280;7947;48.834;9.132;2023-05-23T01:24:29;98027.25;;;18.83;87.69
15694;BME280;7947;48.834;9.132;2023-05-23T01:27:44;98031.09;;;18.82;87.80
15694;BME280;7947;48.834;9.132;2023-05-23T01:30:50;98028.69;;;18.80;88.06
15694;BME280;7947;48.834;9.132;2023-05-23T01:33:54;98029.69;;;18.76;88.04
15694;BME280;7947;48.834;9.132;2023-05-23T01:36:57;98032.75;;;18.74;88.64
15694;BME280;7947;48.834;9.132;2023-05-23T01:40:00;98030.22;;;18.69;88.26
15694;BME280;7947;48.834;9.132;2023-05-23T01:43:04;98030.22;;;18.69;88.66
15694;BME280;7947;48.834;9.132;2023-05-23T01:46:08;98031.47;;;18.72;88.29
15694;BME280;7947;48.834;9.132;2023-05-23T01:49:13;98031.81;;;18.70;88.45
15694;BME280;7947;48.834;9.132;2023-05-23T01:52:17;98036.44;;;18.70;88.51
15694;BME280;7947;48.834;9.132;2023-05-23T01:55:21;98036.44;;;18.70;88.37
15694;BME280;7947;48.834;9.132;2023-05-23T01:58:26;98030.34;;;18.73;88.38
15694;BME280;7947;48.834;9.132;2023-05-23T02:01:29;98029.88;;;18.71;88.39
15694;BME280;7947;48.834;9.132;2023-05-23T02:04:32;98033.06;;;18.73;88.57
15694;BME280;7947;48.834;9.132;2023-05-23T02:07:34;98030.81;;;18.75;88.00
15694;BME280;7947;48.834;9.132;2023-05-23T02:10:37;98024.91;;;18.73;88.31
15694;BME280;7947;48.834;9.132;2023-05-23T02:13:41;98027.50;;;18.69;88.40
15694;BME280;7947;48.834;9.132;2023-05-23T02:16:44;98031.19;;;18.65;88.36
15694;BME280;7947;48.834;9.132;2023-05-23T02:19:47;98027.69;;;18.64;88.62
15694;BME280;7947;48.834;9.132;2023-05-23T02:22:50;98029.78;;;18.59;89.10
15694;BME280;7947;48.834;9.132;2023-05-23T02:25:53;98032.38;;;18.55;88.95
15694;BME280;7947;48.834;9.132;2023-05-23T02:28:57;98035.28;;;18.50;89.29
15694;BME280;7947;48.834;9.132;2023-05-23T02:32:00;98032.41;;;18.47;89.50
15694;BME280;7947;48.834;9.132;2023-05-23T02:35:03;98032.25;;;18.52;88.93
15694;BME280;7947;48.834;9.132;2023-05-23T02:38:06;98027.78;;;18.47;89.56
15694;BME280;7947;48.834;9.132;2023-05-23T02:41:09;98040.56;;;18.47;89.37
15694;BME280;7947;48.834;9.132;2023-05-23T02:44:13;98044.56;;;18.49;89.52
15694;BME280;7947;48.834;9.132;2023-05-23T02:47:16;98042.31;;;18.51;89.00
15694;BME280;7947;48.834;9.132;2023-05-23T02:50:19;98045.16;;;18.55;89.35
15694;BME280;7947;48.834;9.132;2023-05-23T02:53:22;98044.34;;;18.54;88.96
15694;BME280;7947;48.834;9.132;2023-05-23T02:56:25;98045.13;;;18.63;88.13
15694;BME280;7947;48.834;9.132;2023-05-23T02:59:29;98054.09;;;18.55;88.39
15694;BME280;7947;48.834;9.132;2023-05-23T03:02:32;98050.31;;;18.48;88.82
15694;BME280;7947;48.834;9.132;2023-05-23T03:05:35;98048.72;;;18.47;89.40
15694;BME280;7947;48.834;9.132;2023-05-23T03:08:38;98056.69;;;18.52;89.13
15694;BME280;7947;48.834;9.132;2023-05-23T03:11:40;98058.28;;;18.53;88.92
15694;BME280;7947;48.834;9.132;2023-05-23T03:14:44;98057.31;;;18.49;89.01
15694;BME280;7947;48.834;9.132;2023-05-23T03:17:47;98055.56;;;18.53;88.75
15694;BME280;7947;48.834;9.132;2023-05-23T03:20:50;98057.19;;;18.45;88.75
15694;BME280;7947;48.834;9.132;2023-05-23T03:23:53;98065.16;;;18.50;88.44
15694;BME280;7947;48.834;9.132;2023-05-23T03:26:56;98073.16;;;18.47;88.94
15694;BME280;7947;48.834;9.132;2023-05-23T03:30:01;98075.09;;;18.46;88.56
15694;BME280;7947;48.834;9.132;2023-05-23T03:33:04;98059.41;;;18.52;88.49
15694;BME280;7947;48.834;9.132;2023-05-23T03:36:07;98065.16;;;18.50;88.96
15694;BME280;7947;48.834;9.132;2023-05-23T03:39:10;98068.78;;;18.54;88.31
15694;BME280;7947;48.834;9.132;2023-05-23T03:42:13;98080.19;;;18.48;88.65
15694;BME280;7947;48.834;9.132;2023-05-23T03:45:17;98069.31;;;18.48;88.66
15694;BME280;7947;48.834;9.132;2023-05-23T03:48:20;98067.09;;;18.50;88.41
15694;BME280;7947;48.834;9.132;2023-05-23T03:51:23;98066.75;;;18.51;88.00
15694;BME280;7947;48.834;9.132;2023-05-23T03:54:25;98069.78;;;18.50;87.94
15694;BME280;7947;48.834;9.132;2023-05-23T03:57:28;98070.78;;;18.45;88.29
15694;BME280;7947;48.834;9.132;2023-05-23T04:00:32;98071.72;;;18.41;88.47
15694;BME280;7947;48.834;9.132;2023-05-23T04:03:35;98074.16;;;18.34;89.00
15694;BME280;7947;48.834;9.132;2023-05-23T04:06:38;98068.56;;;18.30;89.35
15694;BME280;7947;48.834;9.132;2023-05-23T04:09:42;98082.16;;;18.30;89.49
15694;BME280;7947;48.834;9.132;2023-05-23T04:12:45;98082.75;;;18.36;89.06
15694;BME280;7947;48.834;9.132;2023-05-23T04:15:50;98074.16;;;18.34;89.62
15694;BME280;7947;48.834;9.132;2023-05-23T04:18:53;98071.91;;;18.36;89.02
15694;BME280;7947;48.834;9.132;2023-05-23T04:21:56;98073.34;;;18.33;89.29
15694;BME280;7947;48.834;9.132;2023-05-23T04:24:59;98079.25;;;18.35;89.47
15694;BME280;7947;48.834;9.132;2023-05-23T04:28:02;98075.56;;;18.40;89.15
15694;BME280;7947;48.834;9.132;2023-05-23T04:31:07;98084.03;;;18.38;89.45
15694;BME280;7947;48.834;9.132;2023-05-23T04:34:10;98081.66;;;18.37;89.24
15694;BME280;7947;48.834;9.132;2023-05-23T04:37:13;98092.81;;;18.35;89.20
15694;BME280;7947;48.834;9.132;2023-05-23T04:40:16;98097.78;;;18.33;89.47
15694;BME280;7947;48.834;9.132;2023-05-23T04:43:19;98094.56;;;18.40;88.58
15694;BME280;7947;48.834;9.132;2023-05-23T04:46:23;98099.84;;;18.36;88.96
15694;BME280;7947;48.834;9.132;2023-05-23T04:49:27;98106.91;;;18.29;89.56
15694;BME280;7947;48.834;9.132;2023-05-23T04:52:30;98112.81;;;18.31;90.27
15694;BME280;7947;48.834;9.132;2023-05-23T04:55:35;98109.91;;;18.36;89.23
15694;BME280;7947;48.834;9.132;2023-05-23T04:58:38;98105.91;;;18.33;89.03
15694;BME280;7947;48.834;9.132;2023-05-23T05:01:44;98112.16;;;18.34;89.70
15694;BME280;7947;48.834;9.132;2023-05-23T05:04:47;98112.63;;;18.36;89.38
15694;BME280;7947;48.834;9.132;2023-05-23T05:07:50;98118.53;;;18.38;89.87
15694;BME280;7947;48.834;9.132;2023-05-23T05:10:53;98110.84;;;18.40;89.23
15694;BME280;7947;48.834;9.132;2023-05-23T05:13:56;98124.91;;;18.42;89.14
15694;BME280;7947;48.834;9.132;2023-05-23T05:17:00;98124.59;;;18.43;88.68
15694;BME280;7947;48.834;9.132;2023-05-23T05:20:05;98119.97;;;18.44;88.39
15694;BME280;7947;48.834;9.132;2023-05-23T05:23:09;98123.81;;;18.43;88.94
15694;BME280;7947;48.834;9.132;2023-05-23T05:26:12;98128.94;;;18.44;88.34
15694;BME280;7947;48.834;9.132;2023-05-23T05:29:15;98127.47;;;18.47;88.56
15694;BME280;7947;48.834;9.132;2023-05-23T05:32:19;98138.50;;;18.50;88.53
15694;BME280;7947;48.834;9.132;2023-05-23T05:35:22;98134.84;;;18.46;88.60
15694;BME280;7947;48.834;9.132;2023-05-23T05:38:25;98128.41;;;18.51;88.61
15694;BME280;7947;48.834;9.132;2023-05-23T05:41:28;98121.53;;;18.53;88.70
15694;BME280;7947;48.834;9.132;2023-05-23T05:44:31;98125.06;;;18.54;88.93
15694;BME280;7947;48.834;9.132;2023-05-23T05:47:37;98126.31;;;18.56;88.31
15694;BME280;7947;48.834;9.132;2023-05-23T05:50:40;98128.25;;;18.56;88.54
15694;BME280;7947;48.834;9.132;2023-05-23T05:53:45;98128.38;;;18.59;89.03
15694;BME280;7947;48.834;9.132;2023-05-23T05:56:50;98131.38;;;18.66;89.12
15694;BME280;7947;48.834;9.132;2023-05-23T05:59:53;98131.69;;;18.73;88.27
15694;BME280;7947;48.834;9.132;2023-05-23T06:02:57;98139.50;;;18.75;88.01
15694;BME280;7947;48.834;9.132;2023-05-23T06:06:00;98129.25;;;18.80;87.10
15694;BME280;7947;48.834;9.132;2023-05-23T06:09:03;98138.97;;;18.81;86.83
15694;BME280;7947;48.834;9.132;2023-05-23T06:12:06;98129.44;;;18.75;87.14
15694;BME280;7947;48.834;9.132;2023-05-23T06:15:09;98142.50;;;18.82;86.95
15694;BME280;7947;48.834;9.132;2023-05-23T06:18:15;98144.56;;;18.85;86.07
15694;BME280;7947;48.834;9.132;2023-05-23T06:21:18;98151.31;;;18.79;86.33
15694;BME280;7947;48.834;9.132;2023-05-23T06:24:20;98146.03;;;18.74;86.73
15694;BME280;7947;48.834;9.132;2023-05-23T06:27:23;98148.75;;;18.74;86.31
15694;BME280;7947;48.834;9.132;2023-05-23T06:30:26;98150.69;;;18.73;86.10
15694;BME280;7947;48.834;9.132;2023-05-23T06:33:31;98156.63;;;18.67;86.60
15694;BME280;7947;48.834;9.132;2023-05-23T06:36:34;98155.00;;;18.74;85.86
15694;BME280;7947;48.834;9.132;2023-05-23T06:39:37;98164.59;;;18.72;85.47
15694;BME280;7947;48.834;9.132;2023-05-23T06:42:39;98176.31;;;18.64;85.61
15694;BME280;7947;48.834;9.132;2023-05-23T06:45:45;98176.81;;;18.57;85.98
15694;BME280;7947;48.834;9.132;2023-05-23T06:48:49;98174.09;;;18.49;86.36
15694;BME280;7947;48.834;9.132;2023-05-23T06:52:12;98181.97;;;18.50;86.21
15694;BME280;7947;48.834;9.132;2023-05-23T06:55:15;98179.22;;;18.42;86.77
15694;BME280;7947;48.834;9.132;2023-05-23T06:58:20;98190.09;;;18.42;87.00
15694;BME280;7947;48.834;9.132;2023-05-23T07:01:25;98194.25;;;18.48;86.42
15694;BME280;7947;48.834;9.132;2023-05-23T07:04:29;98197.59;;;18.45;86.31
15694;BME280;7947;48.834;9.132;2023-05-23T07:07:32;98196.34;;;18.42;85.28
15694;BME280;7947;48.834;9.132;2023-05-23T07:10:35;98196.34;;;18.42;85.18
15694;BME280;7947;48.834;9.132;2023-05-23T07:13:39;98200.63;;;18.52;84.01
15694;BME280;7947;48.834;9.132;2023-05-23T07:16:42;98209.13;;;18.50;83.46
15694;BME280;7947;48.834;9.132;2023-05-23T07:19:46;98215.50;;;18.46;83.02
15694;BME280;7947;48.834;9.132;2023-05-23T07:22:49;98220.28;;;18.49;80.56
15694;BME280;7947;48.834;9.132;2023-05-23T07:25:53;98217.41;;;18.45;81.03
15694;BME280;7947;48.834;9.132;2023-05-23T07:29:03;98216.75;;;18.40;80.74
15694;BME280;7947;48.834;9.132;2023-05-23T07:32:06;98215.63;;;18.41;80.90
15694;BME280;7947;48.834;9.132;2023-05-23T07:35:10;98214.38;;;18.30;81.95
15694;BME280;7947;48.834;9.132;2023-05-23T07:38:13;98210.41;;;18.27;83.29
15694;BME280;7947;48.834;9.132;2023-05-23T07:41:16;98222.72;;;18.25;82.61
15694;BME280;7947;48.834;9.132;2023-05-23T07:44:19;98227.34;;;18.24;81.94
15694;BME280;7947;48.834;9.132;2023-05-23T07:47:25;98223.03;;;18.23;82.60
15694;BME280;7947;48.834;9.132;2023-05-23T07:50:30;98224.28;;;18.34;82.25
15694;BME280;7947;48.834;9.132;2023-05-23T07:53:33;98228.44;;;18.49;80.85
15694;BME280;7947;48.834;9.132;2023-05-23T07:56:41;98235.28;;;18.55;79.64
15694;BME280;7947;48.834;9.132;2023-05-23T07:59:44;98232.25;;;18.56;77.08
15694;BME280;7947;48.834;9.132;2023-05-23T08:02:47;98232.56;;;18.55;77.05
15694;BME280;7947;48.834;9.132;2023-05-23T08:05:51;98233.69;;;18.54;76.99
15694;BME280;7947;48.834;9.132;2023-05-23T08:08:54;98240.25;;;18.53;76.13
15694;BME280;7947;48.834;9.132;2023-05-23T08:11:59;98246.00;;;18.43;76.49
15694;BME280;7947;48.834;9.132;2023-05-23T08:15:07;98249.69;;;18.38;76.50
15694;BME280;7947;48.834;9.132;2023-05-23T08:18:10;98257.34;;;18.36;75.47
15694;BME280;7947;48.834;9.132;2023-05-23T08:21:14;98254.63;;;18.28;76.23
15694;BME280;7947;48.834;9.132;2023-05-23T08:24:17;98249.53;;;18.26;76.95
15694;BME280;7947;48.834;9.132;2023-05-23T08:27:20;98257.34;;;18.28;75.98
15694;BME280;7947;48.834;9.132;2023-05-23T08:30:23;98249.53;;;18.35;75.77
15694;BME280;7947;48.834;9.132;2023-05-23T08:33:26;98261.00;;;18.32;75.29
15694;BME280;7947;48.834;9.132;2023-05-23T08:36:30;98263.72;;;18.32;75.32
15694;BME280;7947;48.834;9.132;2023-05-23T08:39:34;98269.00;;;18.28;75.76
15694;BME280;7947;48.834;9.132;2023-05-23T08:42:37;98261.19;;;18.27;75.16
15694;BME280;7947;48.834;9.132;2023-05-23T08:45:40;98273.63;;;18.28;75.90
15694;BME280;7947;48.834;9.132;2023-05-23T08:48:48;98277.16;;;18.28;75.41
15694;BME280;7947;48.834;9.132;2023-05-23T08:52:01;98283.06;;;18.30;74.96
15694;BME280;7947;48.834;9.132;2023-05-23T08:55:05;98290.25;;;18.26;75.90
15694;BME280;7947;48.834;9.132;2023-05-23T08:58:08;98283.72;;;18.27;76.12
15694;BME280;7947;48.834;9.132;2023-05-23T09:01:12;98287.06;;;18.33;75.82
15694;BME280;7947;48.834;9.132;2023-05-23T09:04:15;98288.81;;;18.37;74.88
15694;BME280;7947;48.834;9.132;2023-05-23T09:07:19;98294.41;;;18.24;74.84
15694;BME280;7947;48.834;9.132;2023-05-23T09:10:22;98291.84;;;18.19;75.74
15694;BME280;7947;48.834;9.132;2023-05-23T09:13:25;98299.38;;;18.13;75.80
15694;BME280;7947;48.834;9.132;2023-05-23T09:16:32;98293.47;;;18.11;75.54
15694;BME280;7947;48.834;9.132;2023-05-23T09:19:39;98303.84;;;18.09;75.62
15694;BME280;7947;48.834;9.132;2023-05-23T09:22:46;98292.31;;;18.12;75.48
15694;BME280;7947;48.834;9.132;2023-05-23T09:25:50;98304.16;;;18.16;75.42
15694;BME280;7947;48.834;9.132;2023-05-23T09:28:56;98304.97;;;18.25;75.63
15694;BME280;7947;48.834;9.132;2023-05-23T09:32:09;98307.19;;;18.40;73.33
15694;BME280;7947;48.834;9.132;2023-05-23T09:35:12;98296.97;;;18.46;73.26
15694;BME280;7947;48.834;9.132;2023-05-23T09:38:17;98309.72;;;18.62;73.19
15694;BME280;7947;48.834;9.132;2023-05-23T09:41:22;98299.53;;;18.59;71.73
15694;BME280;7947;48.834;9.132;2023-05-23T09:44:25;98297.56;;;18.68;71.87
15694;BME280;7947;48.834;9.132;2023-05-23T09:47:28;98304.25;;;18.79;71.20
15694;BME280;7947;48.834;9.132;2023-05-23T09:50:32;98305.06;;;18.88;70.45
15694;BME280;7947;48.834;9.132;2023-05-23T09:53:36;98299.75;;;18.92;69.88
15694;BME280;7947;48.834;9.132;2023-05-23T09:56:41;98298.94;;;18.91;70.12
15694;BME280;7947;48.834;9.132;2023-05-23T09:59:51;98306.63;;;18.98;70.22
15694;BME280;7947;48.834;9.132;2023-05-23T10:03:04;98302.41;;;19.09;68.74
15694;BME280;7947;48.834;9.132;2023-05-23T10:06:17;98305.44;;;19.16;69.78
15694;BME280;7947;48.834;9.132;2023-05-23T10:09:29;98298.19;;;19.20;68.65
15694;BME280;7947;48.834;9.132;2023-05-23T10:12:43;98299.34;;;19.19;69.19
15694;BME280;7947;48.834;9.132;2023-05-23T10:15:48;98303.94;;;19.27;68.64
15694;BME280;7947;48.834;9.132;2023-05-23T10:18:55;98303.63;;;19.37;67.11
15694;BME280;7947;48.834;9.132;2023-05-23T10:22:00;98301.97;;;19.45;66.90
15694;BME280;7947;48.834;9.132;2023-05-23T10:25:07;98311.22;;;19.52;65.78
15694;BME280;7947;48.834;9.132;2023-05-23T10:28:11;98306.13;;;19.51;66.16
15694;BME280;7947;48.834;9.132;2023-05-23T10:31:15;98313.09;;;19.60;67.97
15694;BME280;7947;48.834;9.132;2023-05-23T10:34:24;98309.25;;;19.61;66.80
15694;BME280;7947;48.834;9.132;2023-05-23T10:37:34;98314.41;;;19.54;66.98
15694;BME280;7947;48.834;9.132;2023-05-23T10:40:51;98306.25;;;19.54;69.01
15694;BME280;7947;48.834;9.132;2023-05-23T10:44:01;98301.88;;;19.62;67.57
15694;BME280;7947;48.834;9.132;2023-05-23T10:47:06;98302.50;;;19.67;66.87
15694;BME280;7947;48.834;9.132;2023-05-23T10:50:12;98297.94;;;19.80;67.11
15694;BME280;7947;48.834;9.132;2023-05-23T10:53:15;98303.56;;;19.96;67.66
15694;BME280;7947;48.834;9.132;2023-05-23T10:56:21;98304.44;;;20.08;65.68
15694;BME280;7947;48.834;9.132;2023-05-23T10:59:26;98301.97;;;20.24;61.68
15694;BME280;7947;48.834;9.132;2023-05-23T11:02:29;98303.06;;;20.23;61.38
15694;BME280;7947;48.834;9.132;2023-05-23T11:05:32;98301.50;;;20.22;62.33
15694;BME280;7947;48.834;9.132;2023-05-23T11:08:39;98305.16;;;20.26;63.49
15694;BME280;7947;48.834;9.132;2023-05-23T11:12:01;98311.31;;;20.35;62.23
15694;BME280;7947;48.834;9.132;2023-05-23T11:15:19;98307.13;;;20.37;63.21
15694;BME280;7947;48.834;9.132;2023-05-23T11:18:23;98311.13;;;20.40;63.48
15694;BME280;7947;48.834;9.132;2023-05-23T11:21:28;98314.78;;;20.44;61.74
15694;BME280;7947;48.834;9.132;2023-05-23T11:24:47;98323.59;;;20.41;62.68
15694;BME280;7947;48.834;9.132;2023-05-23T11:27:53;98327.28;;;20.24;63.65
15694;BME280;7947;48.834;9.132;2023-05-23T11:30:56;98321.03;;;20.24;63.11
15694;BME280;7947;48.834;9.132;2023-05-23T11:33:59;98322.84;;;20.11;62.48
15694;BME280;7947;48.834;9.132;2023-05-23T11:37:03;98313.44;;;20.09;63.06
15694;BME280;7947;48.834;9.132;2023-05-23T11:40:27;98317.25;;;20.08;64.50
15694;BME280;7947;48.834;9.132;2023-05-23T11:43:31;98321.72;;;20.12;63.08
15694;BME280;7947;48.834;9.132;2023-05-23T11:46:34;98318.97;;;20.21;63.26
15694;BME280;7947;48.834;9.132;2023-05-23T11:49:38;98312.97;;;20.27;63.70
15694;BME280;7947;48.834;9.132;2023-05-23T11:52:41;98313.38;;;20.38;61.89
15694;BME280;7947;48.834;9.132;2023-05-23T11:55:48;98304.13;;;20.51;61.07
15694;BME280;7947;48.834;9.132;2023-05-23T11:58:56;98308.25;;;20.57;60.30
15694;BME280;7947;48.834;9.132;2023-05-23T12:02:01;98311.38;;;20.47;60.00
15694;BME280;7947;48.834;9.132;2023-05-23T12:05:07;98308.47;;;20.31;60.49
15694;BME280;7947;48.834;9.132;2023-05-23T12:08:11;98317.84;;;20.22;60.13
15694;BME280;7947;48.834;9.132;2023-05-23T12:11:14;98307.31;;;20.53;61.99
15694;BME280;7947;48.834;9.132;2023-05-23T12:14:18;98287.72;;;21.04;60.87
15694;BME280;7947;48.834;9.132;2023-05-23T12:17:21;98299.13;;;21.42;60.68
15694;BME280;7947;48.834;9.132;2023-05-23T12:20:24;98299.81;;;21.51;58.79
15694;BME280;7947;48.834;9.132;2023-05-23T12:23:28;98289.13;;;21.34;56.91
15694;BME280;7947;48.834;9.132;2023-05-23T12:26:45;98300.25;;;21.17;57.72
15694;BME280;7947;48.834;9.132;2023-05-23T12:30:03;98289.44;;;21.09;58.94
15694;BME280;7947;48.834;9.132;2023-05-23T12:33:07;98290.03;;;21.38;58.63
15694;BME280;7947;48.834;9.132;2023-05-23T12:36:10;98291.25;;;21.53;57.00
15694;BME280;7947;48.834;9.132;2023-05-23T12:39:14;98298.19;;;21.50;58.16
15694;BME280;7947;48.834;9.132;2023-05-23T12:42:17;98283.06;;;21.65;59.02
15694;BME280;7947;48.834;9.132;2023-05-23T12:45:23;98280.00;;;21.91;58.27
15694;BME280;7947;48.834;9.132;2023-05-23T12:48:26;98265.34;;;22.23;57.29
15694;BME280;7947;48.834;9.132;2023-05-23T12:51:28;98262.66;;;22.38;55.61
15694;BME280;7947;48.834;9.132;2023-05-23T12:54:32;98263.63;;;22.58;54.39
15694;BME280;7947;48.834;9.132;2023-05-23T12:57:35;98257.22;;;22.66;55.15
15694;BME280;7947;48.834;9.132;2023-05-23T13:00:39;98262.81;;;22.58;55.06
15694;BME280;7947;48.834;9.132;2023-05-23T13:03:42;98265.69;;;22.49;53.70
15694;BME280;7947;48.834;9.132;2023-05-23T13:06:45;98263.59;;;22.30;54.08
15694;BME280;7947;48.834;9.132;2023-05-23T13:09:48;98258.09;;;22.03;54.97
15694;BME280;7947;48.834;9.132;2023-05-23T13:12:51;98262.94;;;21.82;54.81
15694;BME280;7947;48.834;9.132;2023-05-23T13:15:56;98261.69;;;21.67;56.37
15694;BME280;7947;48.834;9.132;2023-05-23T13:18:58;98266.59;;;21.49;56.70
15694;BME280;7947;48.834;9.132;2023-05-23T13:22:01;98274.91;;;21.29;57.43
15694;BME280;7947;48.834;9.132;2023-05-23T13:25:06;98271.38;;;21.16;58.07
15694;BME280;7947;48.834;9.132;2023-05-23T13:28:09;98276.59;;;21.09;57.95
15694;BME280;7947;48.834;9.132;2023-05-23T13:31:13;98278.06;;;21.07;59.27
15694;BME280;7947;48.834;9.132;2023-05-23T13:34:16;98269.88;;;21.07;59.04
15694;BME280;7947;48.834;9.132;2023-05-23T13:37:19;98273.63;;;21.14;60.64
15694;BME280;7947;48.834;9.132;2023-05-23T13:40:21;98272.28;;;21.20;59.17
15694;BME280;7947;48.834;9.132;2023-05-23T13:43:24;98280.47;;;21.32;58.78
15694;BME280;7947;48.834;9.132;2023-05-23T13:46:29;98286.13;;;21.27;59.57
15694;BME280;7947;48.834;9.132;2023-05-23T13:49:31;98282.19;;;21.25;58.66
15694;BME280;7947;48.834;9.132;2023-05-23T13:52:34;98275.09;;;21.12;59.40
15694;BME280;7947;48.834;9.132;2023-05-23T13:55:37;98282.13;;;21.01;58.96
15694;BME280;7947;48.834;9.132;2023-05-23T13:58:40;98283.47;;;20.95;60.23
15694;BME280;7947;48.834;9.132;2023-05-23T14:01:44;98273.13;;;20.88;60.39
15694;BME280;7947;48.834;9.132;2023-05-23T14:04:47;98273.13;;;20.88;60.55
15694;BME280;7947;48.834;9.132;2023-05-23T14:07:50;98271.16;;;20.89;60.73
15694;BME280;7947;48.834;9.132;2023-05-23T14:10:53;98264.16;;;21.00;60.50
15694;BME280;7947;48.834;9.132;2023-05-23T14:13:56;98262.38;;;21.28;61.38
15694;BME280;7947;48.834;9.132;2023-05-23T14:17:00;98263.97;;;21.53;58.99
15694;BME280;7947;48.834;9.132;2023-05-23T14:20:04;98262.50;;;21.68;61.87
15694;BME280;7947;48.834;9.132;2023-05-23T14:23:08;98276.28;;;21.83;60.19
15694;BME280;7947;48.834;9.132;2023-05-23T14:26:11;98257.97;;;22.11;57.77
15694;BME280;7947;48.834;9.132;2023-05-23T14:29:14;98261.31;;;22.32;57.86
15694;BME280;7947;48.834;9.132;2023-05-23T14:32:18;98256.75;;;22.36;55.65
15694;BME280;7947;48.834;9.132;2023-05-23T14:35:21;98264.44;;;22.19;55.76
15694;BME280;7947;48.834;9.132;2023-05-23T14:38:26;98268.28;;;21.90;57.09
15694;BME280;7947;48.834;9.132;2023-05-23T14:41:28;98262.03;;;21.66;58.66
15694;BME280;7947;48.834;9.132;2023-05-23T14:44:32;98263.75;;;21.46;59.71
15694;BME280;7947;48.834;9.132;2023-05-23T14:47:36;98262.63;;;21.23;60.72
15694;BME280;7947;48.834;9.132;2023-05-23T14:50:39;98251.25;;;21.21;60.69
15694;BME280;7947;48.834;9.132;2023-05-23T14:53:43;98256.38;;;21.22;58.56
15694;BME280;7947;48.834;9.132;2023-05-23T14:56:45;98249.78;;;21.47;57.98
15694;BME280;7947;48.834;9.132;2023-05-23T14:59:52;98248.25;;;21.74;58.13
15694;BME280;7947;48.834;9.132;2023-05-23T15:02:56;98250.63;;;22.00;55.51
15694;BME280;7947;48.834;9.132;2023-05-23T15:05:59;98250.16;;;21.98;55.45
15694;BME280;7947;48.834;9.132;2023-05-23T15:09:02;98250.16;;;21.98;54.73
15694;BME280;7947;48.834;9.132;2023-05-23T15:12:04;98261.00;;;21.94;55.50
15694;BME280;7947;48.834;9.132;2023-05-23T15:15:10;98252.06;;;22.09;55.31
15694;BME280;7947;48.834;9.132;2023-05-23T15:18:14;98242.00;;;22.25;53.21
15694;BME280;7947;48.834;9.132;2023-05-23T15:21:37;98250.41;;;22.48;51.40
15694;BME280;7947;48.834;9.132;2023-05-23T15:24:50;98247.16;;;22.70;52.37
15694;BME280;7947;48.834;9.132;2023-05-23T15:27:54;98244.44;;;22.86;53.67
15694;BME280;7947;48.834;9.132;2023-05-23T15:30:56;98248.59;;;22.95;53.08
15694;BME280;7947;48.834;9.132;2023-05-23T15:34:01;98252.38;;;23.06;51.74
15694;BME280;7947;48.834;9.132;2023-05-23T15:37:04;98251.34;;;23.11;51.62
15694;BME280;7947;48.834;9.132;2023-05-23T15:40:08;98248.84;;;23.06;49.97
15694;BME280;7947;48.834;9.132;2023-05-23T15:43:11;98247.00;;;22.94;50.18
15694;BME280;7947;48.834;9.132;2023-05-23T15:46:13;98249.03;;;22.82;50.72
15694;BME280;7947;48.834;9.132;2023-05-23T15:49:18;98246.88;;;22.75;51.91
15694;BME280;7947;48.834;9.132;2023-05-23T15:52:27;98257.16;;;22.78;52.93
15694;BME280;7947;48.834;9.132;2023-05-23T15:55:30;98253.75;;;22.69;53.10
15694;BME280;7947;48.834;9.132;2023-05-23T15:58:33;98256.22;;;22.59;53.33
15694;BME280;7947;48.834;9.132;2023-05-23T16:01:36;98257.78;;;22.32;54.17
15694;BME280;7947;48.834;9.132;2023-05-23T16:04:40;98253.34;;;22.00;55.63
15694;BME280;7947;48.834;9.132;2023-05-23T16:07:43;98259.06;;;21.71;56.03
15694;BME280;7947;48.834;9.132;2023-05-23T16:10:46;98263.88;;;21.49;58.21
15694;BME280;7947;48.834;9.132;2023-05-23T16:13:48;98262.75;;;21.38;58.39
15694;BME280;7947;48.834;9.132;2023-05-23T16:16:51;98257.50;;;21.45;58.29
15694;BME280;7947;48.834;9.132;2023-05-23T16:19:55;98256.13;;;21.51;57.47
15694;BME280;7947;48.834;9.132;2023-05-23T16:22:58;98248.16;;;21.58;57.03
15694;BME280;7947;48.834;9.132;2023-05-23T16:26:01;98252.69;;;21.67;55.08
15694;BME280;7947;48.834;9.132;2023-05-23T16:29:04;98251.34;;;21.61;55.16